createdAt,value
2023-05-10T00:01:35.636Z,47.00
2023-05-10T00:04:03.782Z,46.80
2023-05-10T00:06:32.466Z,46.80
2023-05-10T00:09:00.633Z,46.70
2023-05-10T00:11:30.242Z,46.50
2023-05-10T00:13:58.406Z,46.70
2023-05-10T00:16:26.663Z,46.70
2023-05-10T00:18:54.810Z,46.50
2023-05-10T00:21:22.957Z,46.30
2023-05-10T00:23:51.139Z,46.20
2023-05-10T00:26:19.240Z,46.10
2023-05-10T00:28:48.708Z,46.20
2023-05-10T00:31:16.897Z,46.10
2023-05-10T00:33:45.062Z,46.40
2023-05-10T00:36:13.256Z,46.40
2023-05-10T00:38:41.509Z,46.40
2023-05-10T00:41:10.109Z,46.70
2023-05-10T00:43:38.306Z,46.70
2023-05-10T00:46:08.278Z,46.70
2023-05-10T00:48:37.228Z,46.60
2023-05-10T00:51:05.506Z,47.00
2023-05-10T00:53:34.151Z,46.80
2023-05-10T00:56:02.317Z,46.80
2023-05-10T00:58:31.886Z,47.00
2023-05-10T01:01:00.619Z,47.10
2023-05-10T01:03:30.342Z,47.30
2023-05-10T01:05:58.614Z,47.40
2023-05-10T01:08:27.051Z,47.30
2023-05-10T01:10:55.592Z,47.30
2023-05-10T01:13:31.882Z,47.40
2023-05-10T01:16:00.748Z,47.40
2023-05-10T01:18:31.250Z,47.30
2023-05-10T01:21:04.125Z,47.40
2023-05-10T01:23:43.958Z,47.60
2023-05-10T01:26:21.656Z,47.70
2023-05-10T01:29:04.670Z,47.80
2023-05-10T01:31:37.137Z,48.10
2023-05-10T01:34:09.088Z,48.00
2023-05-10T01:36:41.650Z,48.20
2023-05-10T01:39:11.990Z,48.20
2023-05-10T01:41:43.430Z,48.30
2023-05-10T01:44:15.802Z,48.20
2023-05-10T01:46:44.190Z,48.50
2023-05-10T01:49:16.961Z,48.70
2023-05-10T01:51:47.199Z,48.70
2023-05-10T01:54:16.062Z,48.40
2023-05-10T01:56:45.869Z,48.40
2023-05-10T01:59:15.537Z,48.70
2023-05-10T02:01:44.857Z,48.70
2023-05-10T02:04:16.379Z,48.60
2023-05-10T02:06:45.935Z,48.70
2023-05-10T02:09:15.327Z,49.10
2023-05-10T02:11:44.940Z,48.70
2023-05-10T02:14:13.417Z,49.00
2023-05-10T02:16:42.512Z,49.10
2023-05-10T02:19:11.216Z,49.20
2023-05-10T02:21:41.290Z,49.20
2023-05-10T02:24:10.322Z,49.30
2023-05-10T02:26:40.274Z,49.40
2023-05-10T02:29:08.761Z,49.60
2023-05-10T02:31:37.189Z,49.70
2023-05-10T02:34:06.200Z,49.70
2023-05-10T02:36:34.999Z,50.00
2023-05-10T02:39:05.511Z,49.80
2023-05-10T02:41:34.764Z,50.00
2023-05-10T02:44:03.821Z,49.90
2023-05-10T02:46:32.392Z,49.90
2023-05-10T02:49:00.645Z,49.80
2023-05-10T02:51:32.543Z,49.80
2023-05-10T02:54:03.818Z,50.00
2023-05-10T02:56:34.949Z,50.30
2023-05-10T02:59:03.028Z,50.30
2023-05-10T03:01:31.333Z,50.30
2023-05-10T03:03:59.496Z,50.30
2023-05-10T03:06:27.630Z,50.70
2023-05-10T03:08:55.775Z,51.20
2023-05-10T03:11:34.020Z,51.20
2023-05-10T03:14:10.047Z,51.10
2023-05-10T03:16:44.940Z,51.20
2023-05-10T03:19:17.515Z,51.10
2023-05-10T03:21:49.413Z,51.30
2023-05-10T03:24:18.450Z,51.20
2023-05-10T03:26:47.397Z,51.30
2023-05-10T03:29:17.514Z,51.60
2023-05-10T03:31:45.904Z,51.50
2023-05-10T03:34:14.067Z,51.50
2023-05-10T03:36:42.176Z,51.50
2023-05-10T03:39:11.740Z,51.40
2023-05-10T03:41:39.897Z,51.40
2023-05-10T03:44:08.036Z,51.70
2023-05-10T03:46:37.569Z,51.80
2023-05-10T03:49:05.685Z,51.70
2023-05-10T03:51:33.954Z,51.60
2023-05-10T03:54:02.133Z,51.80
2023-05-10T03:56:31.033Z,52.00
2023-05-10T03:58:59.128Z,52.10
2023-05-10T04:01:27.405Z,52.30
2023-05-10T04:03:57.011Z,53.00
2023-05-10T04:06:25.305Z,52.50
2023-05-10T04:08:53.571Z,52.60
2023-05-10T04:11:22.859Z,52.60
2023-05-10T04:13:51.050Z,52.70
2023-05-10T04:16:19.548Z,52.50
2023-05-10T04:18:47.757Z,52.40
2023-05-10T04:21:17.268Z,52.30
2023-05-10T04:23:45.501Z,52.30
2023-05-10T04:26:13.740Z,51.80
2023-05-10T04:28:41.969Z,51.70
2023-05-10T04:31:11.019Z,51.30
2023-05-10T04:33:39.316Z,51.30
2023-05-10T04:36:07.728Z,50.90
2023-05-10T04:38:37.318Z,50.60
2023-05-10T04:41:06.008Z,50.40
2023-05-10T04:43:34.152Z,50.30
2023-05-10T04:46:02.834Z,50.20
2023-05-10T04:48:31.108Z,50.20
2023-05-10T04:50:59.249Z,49.90
2023-05-10T04:53:27.414Z,49.90
2023-05-10T04:55:57.114Z,49.70
2023-05-10T04:58:25.238Z,49.10
2023-05-10T05:00:53.408Z,49.40
2023-05-10T05:03:21.687Z,49.20
2023-05-10T05:05:49.911Z,48.80
2023-05-10T05:08:18.115Z,48.50
2023-05-10T05:10:46.244Z,48.50
2023-05-10T05:13:15.843Z,48.70
2023-05-10T05:15:44.078Z,49.00
2023-05-10T05:18:12.370Z,49.10
2023-05-10T05:20:40.787Z,48.70
2023-05-10T05:23:08.961Z,49.30
2023-05-10T05:25:37.383Z,49.10
2023-05-10T05:28:05.719Z,48.70
2023-05-10T05:30:35.310Z,48.90
2023-05-10T05:33:03.545Z,49.00
2023-05-10T05:35:31.821Z,48.60
2023-05-10T05:38:00.020Z,48.90
2023-05-10T05:40:28.231Z,48.10
2023-05-10T05:42:56.705Z,47.40
2023-05-10T05:45:24.885Z,47.10
2023-05-10T05:47:54.463Z,46.00
2023-05-10T05:50:22.715Z,46.20
2023-05-10T05:52:50.878Z,45.40
2023-05-10T05:55:19.392Z,45.20
2023-05-10T05:57:47.679Z,44.90
2023-05-10T06:00:16.279Z,44.80
2023-05-10T06:02:44.712Z,44.70
2023-05-10T06:05:15.104Z,44.30
2023-05-10T06:07:43.836Z,43.80
2023-05-10T06:10:12.333Z,43.60
2023-05-10T06:12:40.486Z,43.70
2023-05-10T06:15:09.285Z,44.20
2023-05-10T06:17:37.619Z,44.30
2023-05-10T06:20:06.206Z,44.50
2023-05-10T06:22:35.784Z,43.50
2023-05-10T06:25:04.015Z,43.20
2023-05-10T06:27:32.221Z,42.70
2023-05-10T06:30:11.812Z,43.40
2023-05-10T06:32:41.447Z,44.40
2023-05-10T06:35:10.243Z,43.10
2023-05-10T06:37:39.764Z,42.40
2023-05-10T06:40:08.737Z,43.00
2023-05-10T06:42:36.857Z,42.20
2023-05-10T06:45:06.281Z,43.20
2023-05-10T06:47:36.544Z,41.80
2023-05-10T06:50:07.677Z,42.30
2023-05-10T06:52:35.843Z,42.70
2023-05-10T06:55:05.783Z,41.80
2023-05-10T06:57:34.378Z,41.80
2023-05-10T07:00:02.630Z,42.10
2023-05-10T07:02:30.858Z,40.90
2023-05-10T07:05:01.640Z,40.30
2023-05-10T07:07:31.236Z,40.30
2023-05-10T07:09:59.545Z,40.00
2023-05-10T07:12:29.785Z,40.00
2023-05-10T07:14:58.027Z,39.40
2023-05-10T07:17:26.467Z,41.40
2023-05-10T07:19:54.722Z,40.70
2023-05-10T07:22:23.014Z,40.60
2023-05-10T07:24:51.197Z,38.90
2023-05-10T07:27:19.331Z,39.10
2023-05-10T07:29:48.877Z,40.40
2023-05-10T07:32:17.109Z,39.60
2023-05-10T07:34:45.186Z,39.00
2023-05-10T07:37:13.538Z,37.60
2023-05-10T07:39:41.654Z,37.00
2023-05-10T07:42:09.812Z,36.90
2023-05-10T07:44:37.987Z,35.50
2023-05-10T07:47:07.509Z,37.00
2023-05-10T07:49:36.617Z,38.50
2023-05-10T07:52:05.432Z,38.20
2023-05-10T07:54:34.740Z,39.90
2023-05-10T07:57:02.996Z,38.70
2023-05-10T07:59:31.300Z,38.10
2023-05-10T08:01:59.511Z,38.70
2023-05-10T08:04:29.186Z,39.60
2023-05-10T08:06:57.394Z,38.40
2023-05-10T08:09:25.628Z,38.40
2023-05-10T08:11:53.730Z,37.90
2023-05-10T08:14:21.804Z,36.40
2023-05-10T08:16:49.948Z,36.70
2023-05-10T08:19:19.996Z,35.60
2023-05-10T08:21:49.538Z,36.80
2023-05-10T08:24:17.751Z,34.90
2023-05-10T08:26:45.965Z,34.30
2023-05-10T08:29:14.090Z,35.80
2023-05-10T08:31:42.319Z,33.30
2023-05-10T08:34:10.634Z,33.80
2023-05-10T08:36:38.800Z,34.60
2023-05-10T08:39:16.140Z,33.40
2023-05-10T08:41:48.952Z,34.00
2023-05-10T08:44:17.620Z,33.20
2023-05-10T08:46:48.016Z,32.50
2023-05-10T08:49:19.192Z,32.60
2023-05-10T08:51:50.906Z,32.50
2023-05-10T08:54:20.660Z,32.10
2023-05-10T08:56:49.828Z,32.10
2023-05-10T08:59:18.213Z,33.50
2023-05-10T09:01:46.997Z,32.80
2023-05-10T09:04:15.217Z,33.50
2023-05-10T09:06:43.501Z,32.60
2023-05-10T09:09:12.022Z,32.00
2023-05-10T09:11:41.539Z,30.20
2023-05-10T09:14:10.469Z,31.10
2023-05-10T09:16:38.649Z,30.60
2023-05-10T09:19:07.986Z,32.30
2023-05-10T09:21:37.711Z,32.10
2023-05-10T09:24:06.625Z,31.70
2023-05-10T09:26:36.262Z,30.80
2023-05-10T09:29:07.400Z,30.80
2023-05-10T09:31:48.762Z,30.90
2023-05-10T09:34:20.288Z,32.10
2023-05-10T09:36:55.561Z,30.90
2023-05-10T09:39:31.681Z,32.30
2023-05-10T09:42:00.038Z,32.10
2023-05-10T09:44:29.596Z,33.50
2023-05-10T09:46:58.060Z,35.10
2023-05-10T09:49:26.234Z,33.60
2023-05-10T09:52:04.664Z,32.70
2023-05-10T09:54:32.988Z,32.60
2023-05-10T09:57:01.625Z,33.10
2023-05-10T09:59:31.299Z,31.40
2023-05-10T10:01:59.967Z,31.60
2023-05-10T10:04:28.387Z,32.20
2023-05-10T10:07:03.667Z,31.50
2023-05-10T10:09:32.299Z,29.30
2023-05-10T10:12:01.097Z,29.10
2023-05-10T10:14:29.592Z,28.30
2023-05-10T10:17:08.048Z,28.90
2023-05-10T10:19:37.665Z,29.90
2023-05-10T10:22:06.708Z,29.00
2023-05-10T10:24:35.139Z,28.20
2023-05-10T10:27:07.811Z,29.40
2023-05-10T10:29:38.788Z,29.30
2023-05-10T10:32:13.060Z,29.10
2023-05-10T10:34:41.643Z,28.30
2023-05-10T10:37:09.742Z,28.40
2023-05-10T10:39:38.013Z,27.80
2023-05-10T10:42:06.356Z,27.90
2023-05-10T10:44:42.568Z,27.50
2023-05-10T10:47:30.027Z,27.90
2023-05-10T10:50:05.736Z,28.60
2023-05-10T10:52:35.058Z,27.30
2023-05-10T10:55:04.911Z,27.50
2023-05-10T10:57:34.082Z,27.00
2023-05-10T11:00:21.286Z,27.60
2023-05-10T11:02:51.217Z,27.60
2023-05-10T11:05:26.049Z,27.60
2023-05-10T11:07:54.872Z,27.80
2023-05-10T11:10:23.229Z,28.10
2023-05-10T11:12:55.038Z,29.40
2023-05-10T11:15:30.392Z,29.10
2023-05-10T11:18:00.028Z,27.60
2023-05-10T11:20:34.187Z,28.40
2023-05-10T11:23:13.056Z,27.80
2023-05-10T11:25:43.338Z,27.30
2023-05-10T11:28:11.675Z,26.90
2023-05-10T11:30:40.434Z,28.80
2023-05-10T11:33:10.423Z,29.10
2023-05-10T11:35:43.595Z,29.00
2023-05-10T11:38:12.482Z,28.20
2023-05-10T11:40:41.242Z,26.90
2023-05-10T11:43:10.443Z,27.10
2023-05-10T11:45:39.352Z,26.70
2023-05-10T11:48:07.654Z,26.30
2023-05-10T11:50:37.169Z,25.10
2023-05-10T11:53:05.322Z,25.70
2023-05-10T11:55:35.516Z,25.20
2023-05-10T11:58:04.301Z,26.40
2023-05-10T12:00:32.661Z,26.20
2023-05-10T12:03:02.931Z,26.30
2023-05-10T12:05:33.683Z,26.50
2023-05-10T12:08:15.977Z,26.80
2023-05-10T12:10:44.113Z,26.90
2023-05-10T12:13:16.254Z,27.20
2023-05-10T12:15:44.851Z,25.80
2023-05-10T12:18:13.285Z,25.60
2023-05-10T12:20:42.149Z,26.10
2023-05-10T12:23:10.916Z,26.00
2023-05-10T12:25:41.038Z,27.10
2023-05-10T12:28:10.885Z,26.30
2023-05-10T12:30:39.684Z,25.80
2023-05-10T12:33:10.026Z,25.90
2023-05-10T12:35:45.959Z,26.40
2023-05-10T12:38:27.033Z,25.00
2023-05-10T12:40:56.636Z,24.50
2023-05-10T12:43:25.520Z,24.30
2023-05-10T12:45:54.154Z,25.60
2023-05-10T12:48:22.730Z,25.30
2023-05-10T12:50:50.890Z,23.60
2023-05-10T12:53:19.245Z,23.60
2023-05-10T12:55:47.479Z,24.60
2023-05-10T12:58:27.841Z,25.30
2023-05-10T13:01:04.115Z,25.50
2023-05-10T13:03:32.338Z,26.20
2023-05-10T13:06:00.500Z,27.10
2023-05-10T13:08:30.712Z,26.50
2023-05-10T13:10:58.833Z,26.20
2023-05-10T13:13:28.372Z,27.20
2023-05-10T13:15:56.566Z,26.20
2023-05-10T13:18:25.543Z,27.60
2023-05-10T13:20:53.852Z,26.90
2023-05-10T13:23:22.046Z,27.50
2023-05-10T13:25:50.190Z,26.90
2023-05-10T13:28:18.315Z,27.80
2023-05-10T13:30:47.857Z,26.30
2023-05-10T13:33:16.049Z,27.50
2023-05-10T13:35:44.117Z,27.20
2023-05-10T13:38:12.367Z,28.50
2023-05-10T13:40:40.512Z,27.30
2023-05-10T13:43:08.676Z,29.20
2023-05-10T13:45:36.833Z,29.50
2023-05-10T13:48:06.846Z,27.70
2023-05-10T13:50:35.035Z,28.60
2023-05-10T13:53:03.398Z,27.50
2023-05-10T13:55:31.624Z,28.00
2023-05-10T13:57:59.732Z,28.00
2023-05-10T14:00:28.480Z,29.30
2023-05-10T14:02:56.741Z,28.20
2023-05-10T14:05:26.806Z,28.10
2023-05-10T14:07:55.150Z,26.60
2023-05-10T14:10:23.272Z,26.70
2023-05-10T14:12:51.570Z,26.40
2023-05-10T14:15:19.877Z,26.50
2023-05-10T14:17:48.144Z,27.30
2023-05-10T14:20:16.291Z,27.30
2023-05-10T14:22:45.825Z,28.10
2023-05-10T14:25:14.344Z,28.20
2023-05-10T14:27:42.574Z,28.50
2023-05-10T14:30:11.162Z,28.20
2023-05-10T14:32:39.763Z,28.00
2023-05-10T14:35:09.008Z,28.50
2023-05-10T14:37:38.943Z,28.10
2023-05-10T14:40:10.175Z,28.30
2023-05-10T14:42:38.324Z,28.20
2023-05-10T14:45:07.049Z,28.90
2023-05-10T14:47:35.249Z,31.40
2023-05-10T14:50:03.429Z,32.30
2023-05-10T14:52:34.278Z,32.00
2023-05-10T14:55:02.675Z,32.20
2023-05-10T14:57:32.281Z,31.40
2023-05-10T15:00:00.406Z,32.40
2023-05-10T15:02:29.135Z,30.60
2023-05-10T15:07:51.194Z,30.90
2023-05-10T15:10:19.751Z,32.80
2023-05-10T15:12:49.271Z,31.60
2023-05-10T15:15:17.749Z,32.10
2023-05-10T15:17:46.832Z,34.00
2023-05-10T15:20:15.039Z,34.90
2023-05-10T15:22:43.157Z,34.40
2023-05-10T15:25:11.536Z,34.30
2023-05-10T15:27:39.667Z,35.50
2023-05-10T15:30:10.013Z,34.80
2023-05-10T15:32:38.252Z,36.10
2023-05-10T15:35:06.901Z,35.60
2023-05-10T15:37:35.008Z,36.20
2023-05-10T15:40:05.142Z,35.40
2023-05-10T15:42:33.594Z,34.40
2023-05-10T15:45:01.762Z,35.60
2023-05-10T15:47:31.826Z,35.10
2023-05-10T15:49:59.989Z,34.80
2023-05-10T15:52:28.186Z,34.30
2023-05-10T15:54:56.405Z,34.00
2023-05-10T15:57:24.497Z,34.10
2023-05-10T15:59:52.896Z,34.20
2023-05-10T16:02:22.499Z,34.80
2023-05-10T16:04:52.684Z,35.50
2023-05-10T16:07:20.817Z,34.40
2023-05-10T16:09:49.626Z,34.70
2023-05-10T16:12:17.816Z,35.60
2023-05-10T16:14:46.000Z,36.00
2023-05-10T16:17:15.213Z,36.40
2023-05-10T16:19:43.456Z,37.20
2023-05-10T16:22:13.013Z,37.30
2023-05-10T16:24:41.302Z,37.60
2023-05-10T16:27:09.901Z,37.20
2023-05-10T16:29:38.102Z,37.50
2023-05-10T16:32:07.000Z,38.10
2023-05-10T16:34:35.184Z,37.30
2023-05-10T16:37:03.326Z,37.90
2023-05-10T16:39:32.873Z,38.30
2023-05-10T16:42:01.067Z,38.40
2023-05-10T16:44:29.235Z,39.50
2023-05-10T16:46:57.384Z,39.40
2023-05-10T16:49:26.484Z,38.90
2023-05-10T16:51:54.639Z,39.60
2023-05-10T16:54:23.067Z,39.70
2023-05-10T16:56:52.591Z,40.30
2023-05-10T16:59:20.728Z,40.40
2023-05-10T17:01:48.972Z,41.10
2023-05-10T17:04:17.774Z,42.10
2023-05-10T17:06:45.936Z,42.10
2023-05-10T17:09:14.036Z,42.40
2023-05-10T17:11:42.615Z,42.50
2023-05-10T17:14:12.316Z,42.60
2023-05-10T17:16:40.454Z,42.60
2023-05-10T17:19:09.139Z,43.00
2023-05-10T17:21:37.469Z,43.00
2023-05-10T17:24:05.796Z,43.20
2023-05-10T17:26:34.597Z,43.30
2023-05-10T17:29:02.800Z,43.40
2023-05-10T17:31:33.015Z,43.20
2023-05-10T17:34:02.689Z,43.40
2023-05-10T17:36:33.356Z,43.70
2023-05-10T17:39:01.847Z,44.00
2023-05-10T17:41:29.973Z,44.30
2023-05-10T17:43:58.064Z,44.40
2023-05-10T17:46:26.312Z,44.70
2023-05-10T17:48:55.766Z,44.80
2023-05-10T17:51:23.869Z,45.10
2023-05-10T17:53:52.094Z,45.10
2023-05-10T17:56:20.256Z,45.40
2023-05-10T17:58:48.350Z,45.70
2023-05-10T18:01:16.662Z,45.80
2023-05-10T18:03:44.852Z,46.00
2023-05-10T18:06:14.427Z,46.20
2023-05-10T18:08:42.675Z,46.50
2023-05-10T18:11:10.808Z,46.80
2023-05-10T18:13:39.016Z,47.30
2023-05-10T18:16:08.714Z,47.50
2023-05-10T18:18:36.978Z,47.50
2023-05-10T18:21:05.203Z,48.10
2023-05-10T18:23:35.032Z,48.50
2023-05-10T18:26:03.302Z,48.90
2023-05-10T18:28:31.489Z,49.20
2023-05-10T18:30:59.602Z,49.60
2023-05-10T18:33:27.770Z,49.90
2023-05-10T18:35:55.979Z,50.30
2023-05-10T18:38:24.125Z,50.40
2023-05-10T18:40:53.615Z,50.60
2023-05-10T18:43:21.789Z,50.90
2023-05-10T18:45:50.932Z,51.20
2023-05-10T18:48:19.249Z,51.50
2023-05-10T18:50:47.388Z,51.80
2023-05-10T18:53:15.671Z,52.10
2023-05-10T18:55:44.850Z,51.90
2023-05-10T18:58:14.454Z,52.60
2023-05-10T19:00:43.302Z,52.20
2023-05-10T19:03:11.492Z,52.00
2023-05-10T19:05:39.721Z,52.30
2023-05-10T19:08:07.916Z,52.60
2023-05-10T19:11:34.899Z,52.40
2023-05-10T19:14:03.347Z,52.90
2023-05-10T19:16:31.483Z,53.20
2023-05-10T19:18:59.886Z,53.50
2023-05-10T19:21:28.231Z,53.70
2023-05-10T19:23:57.211Z,53.80
2023-05-10T19:26:25.426Z,54.10
2023-05-10T19:28:55.560Z,54.10
2023-05-10T19:31:24.173Z,54.10
2023-05-10T19:33:52.911Z,54.10
2023-05-10T19:36:21.099Z,54.20
2023-05-10T19:38:49.584Z,54.50
2023-05-10T19:41:17.768Z,54.60
2023-05-10T19:43:45.924Z,54.10
2023-05-10T19:46:17.209Z,53.90
2023-05-10T19:48:50.004Z,53.90
2023-05-10T19:51:18.562Z,53.80
2023-05-10T19:53:46.981Z,53.90
2023-05-10T19:56:16.443Z,53.80
2023-05-10T19:58:44.651Z,53.90
2023-05-10T20:01:12.958Z,53.70
2023-05-10T20:03:42.532Z,53.50
2023-05-10T20:06:10.897Z,53.40
2023-05-10T20:08:39.081Z,53.20
2023-05-10T20:11:07.221Z,53.00
2023-05-10T20:13:35.328Z,52.60
2023-05-10T20:16:05.052Z,52.70
2023-05-10T20:18:33.313Z,52.60
2023-05-10T20:21:02.869Z,52.30
2023-05-10T20:23:31.192Z,52.10
2023-05-10T20:25:59.499Z,52.10
2023-05-10T20:28:28.267Z,51.70
2023-05-10T20:30:56.861Z,52.00
2023-05-10T20:33:25.305Z,51.40
2023-05-10T20:35:53.419Z,51.80
2023-05-10T20:38:22.925Z,51.60
2023-05-10T20:40:51.184Z,51.60
2023-05-10T20:43:21.222Z,51.70
2023-05-10T20:45:49.630Z,51.00
2023-05-10T20:48:18.700Z,50.90
2023-05-10T20:50:46.830Z,50.80
2023-05-10T20:53:15.383Z,50.90
2023-05-10T20:55:44.866Z,51.10
2023-05-10T20:58:12.987Z,51.10
2023-05-10T21:00:41.231Z,51.00
2023-05-10T21:03:09.522Z,50.70
2023-05-10T21:05:37.640Z,50.80
2023-05-10T21:08:05.851Z,50.60
2023-05-10T21:10:34.196Z,50.60
2023-05-10T21:13:03.797Z,50.60
2023-05-10T21:15:31.932Z,50.30
2023-05-10T21:18:00.249Z,50.60
2023-05-10T21:20:28.450Z,50.80
2023-05-10T21:22:56.872Z,50.80
2023-05-10T21:25:25.449Z,50.60
2023-05-10T21:27:53.622Z,50.80
2023-05-10T21:30:23.274Z,51.40
2023-05-10T21:32:51.835Z,50.80
2023-05-10T21:35:20.059Z,51.10
2023-05-10T21:37:48.171Z,51.10
2023-05-10T21:40:16.722Z,50.90
2023-05-10T21:42:49.521Z,50.70
2023-05-10T21:45:18.104Z,51.10
2023-05-10T21:47:47.697Z,51.30
2023-05-10T21:50:15.977Z,52.10
2023-05-10T21:52:44.285Z,52.60
2023-05-10T21:55:12.430Z,52.60
2023-05-10T21:57:40.661Z,52.10
2023-05-10T22:00:10.098Z,52.90
2023-05-10T22:02:38.368Z,52.40
2023-05-10T22:05:08.238Z,52.60
2023-05-10T22:07:36.407Z,52.90
2023-05-10T22:10:05.543Z,52.60
2023-05-10T22:12:33.674Z,52.90
2023-05-10T22:15:10.488Z,52.50
2023-05-10T22:17:39.950Z,52.50
2023-05-10T22:20:10.411Z,52.30
2023-05-10T22:22:38.653Z,52.10
2023-05-10T22:25:07.285Z,52.40
2023-05-10T22:27:35.592Z,53.20
2023-05-10T22:30:03.858Z,52.40
2023-05-10T22:32:32.063Z,52.50
2023-05-10T22:35:00.246Z,52.30
2023-05-10T22:37:29.797Z,52.80
2023-05-10T22:39:57.925Z,52.50
2023-05-10T22:42:26.067Z,52.60
2023-05-10T22:44:54.370Z,52.60
2023-05-10T22:47:22.538Z,52.80
2023-05-10T22:49:50.717Z,52.70
2023-05-10T22:52:18.885Z,52.80
2023-05-10T22:54:48.427Z,52.90
2023-05-10T22:57:17.162Z,53.30
2023-05-10T22:59:45.341Z,53.20
2023-05-10T23:02:14.171Z,53.40
2023-05-10T23:04:42.383Z,53.80
2023-05-10T23:07:10.591Z,54.30
2023-05-10T23:09:38.707Z,54.20
2023-05-10T23:12:08.243Z,54.00
2023-05-10T23:14:36.407Z,54.00
2023-05-10T23:17:04.523Z,53.20
2023-05-10T23:19:32.647Z,53.00
2023-05-10T23:22:00.818Z,52.50
2023-05-10T23:24:29.065Z,52.50
2023-05-10T23:26:57.286Z,52.00
2023-05-10T23:29:26.751Z,52.20
2023-05-10T23:31:54.975Z,52.10
2023-05-10T23:34:23.185Z,52.00
2023-05-10T23:36:51.355Z,52.30
2023-05-10T23:39:19.512Z,52.50
2023-05-10T23:41:47.877Z,52.40
2023-05-10T23:44:16.561Z,52.50
2023-05-10T23:46:46.026Z,52.60
2023-05-10T23:49:14.202Z,52.70
2023-05-10T23:51:42.315Z,52.70
2023-05-10T23:54:10.540Z,52.70
2023-05-10T23:56:38.727Z,52.80
2023-05-10T23:59:06.852Z,52.90
